This is the latest recevied weather packets stored in our database for station/object KE2A-13. If no packets are shown the sender has not sent any weather packets the latest 10 day(s).
| Time | Temp. | Humidity | Pressure | Rain* | Wind** | Luminosity | Snow |
|---|---|---|---|---|---|---|---|
| 1777869900 | 5° C | 82% | 1012.1 hPa | - | - | - | - |
| 1777869000 | 5° C | 82% | 1012.1 hPa | - | - | - | - |
| 1777868100 | 5.56° C | 80% | 1011.9 hPa | - | - | - | - |
| 1777867200 | 5.56° C | 79% | 1011.9 hPa | - | - | - | - |
| 1777866300 | 5.56° C | 77% | 1011.9 hPa | - | - | - | - |
| 1777865400 | 6.11° C | 75% | 1011.9 hPa | - | - | - | - |
| 1777864500 | 6.11° C | 75% | 1011.9 hPa | - | - | - | - |
| 1777863601 | 6.67° C | 72% | 1011.9 hPa | - | - | - | - |
| 1777862700 | 6.67° C | 69% | 1012 hPa | - | - | - | - |
| 1777861800 | 6.67° C | 70% | 1012 hPa | - | - | - | - |
| 1777860900 | 7.22° C | 68% | 1011.9 hPa | - | - | - | - |
| 1777860000 | 7.78° C | 67% | 1011.8 hPa | - | - | - | - |
| 1777859100 | 8.33° C | 63% | 1011.7 hPa | - | - | - | - |
| 1777858200 | 8.89° C | 62% | 1011.7 hPa | - | - | - | - |
| 1777857300 | 9.44° C | 58% | 1011.6 hPa | - | - | - | - |
| 1777856400 | 10° C | 55% | 1011.3 hPa | - | - | - | - |
| 1777855500 | 10.56° C | 51% | 1011.2 hPa | - | - | - | - |
| 1777854600 | 11.11° C | 47% | 1011 hPa | - | - | - | - |
| 1777853700 | 11.67° C | 45% | 1010.7 hPa | - | - | - | - |
| 1777852800 | 12.22° C | 41% | 1010.5 hPa | - | - | - | - |
| 1777851900 | 12.78° C | 40% | 1010.3 hPa | - | - | - | - |
| 1777851000 | 13.33° C | 41% | 1010.2 hPa | - | - | - | - |
| 1777850100 | 13.33° C | 39% | 1010 hPa | - | - | - | - |
| 1777849200 | 13.89° C | 36% | 1009.9 hPa | - | - | - | - |
| 1777848300 | 14.44° C | 35% | 1009.7 hPa | - | - | - | - |
* Rain since midnight (hover to see other rain measurements)
** Current wind speed in m/s (hover to see current wind gust speed)